createdAt,value
2022-10-08T00:00:28.885Z,101570.00
2022-10-08T00:01:51.985Z,101570.20
2022-10-08T00:02:54.995Z,101570.77
2022-10-08T00:03:58.561Z,101570.84
2022-10-08T00:05:02.266Z,101569.06
2022-10-08T00:06:15.051Z,101565.27
2022-10-08T00:07:19.262Z,101565.38
2022-10-08T00:08:22.158Z,101562.97
2022-10-08T00:09:25.176Z,101565.92
2022-10-08T00:10:28.163Z,101565.33
2022-10-08T00:11:38.195Z,101561.02
2022-10-08T00:12:45.215Z,101563.08
2022-10-08T00:13:50.479Z,101557.58
2022-10-08T00:14:54.140Z,101555.98
2022-10-08T00:15:58.282Z,101550.45
2022-10-08T00:17:01.322Z,101551.29
2022-10-08T00:18:04.548Z,101553.67
2022-10-08T00:19:11.714Z,101553.98
2022-10-08T00:20:14.817Z,101553.34
2022-10-08T00:21:24.163Z,101556.27
2022-10-08T00:22:27.212Z,101550.50
2022-10-08T00:23:30.250Z,101546.34
2022-10-08T00:24:33.205Z,101547.02
2022-10-08T00:25:44.107Z,101546.59
2022-10-08T00:26:47.790Z,101547.11
2022-10-08T00:27:51.243Z,101542.08
2022-10-08T00:28:58.310Z,101547.36
2022-10-08T00:30:01.393Z,101541.33
2022-10-08T00:31:10.065Z,101544.14
2022-10-08T00:32:13.223Z,101539.95
2022-10-08T00:33:16.156Z,101535.53
2022-10-08T00:34:23.256Z,101538.61
2022-10-08T00:35:26.327Z,101534.23
2022-10-08T00:36:34.482Z,101529.96
2022-10-08T00:37:37.485Z,101528.55
2022-10-08T00:38:40.806Z,101528.11
2022-10-08T00:39:44.633Z,101529.31
2022-10-08T00:40:47.702Z,101525.02
2022-10-08T00:41:54.042Z,101526.40
2022-10-08T00:43:00.420Z,101518.15
2022-10-08T00:44:24.353Z,101519.98
2022-10-08T00:45:27.538Z,101514.31
2022-10-08T00:46:48.719Z,101515.08
2022-10-08T00:47:54.084Z,101513.39
2022-10-08T00:49:11.476Z,101512.86
2022-10-08T00:50:16.794Z,101514.45
2022-10-08T00:51:19.847Z,101514.60
2022-10-08T00:52:25.157Z,101511.29
2022-10-08T00:53:28.180Z,101511.49
2022-10-08T00:54:32.723Z,101510.89
2022-10-08T00:55:43.155Z,101513.14
2022-10-08T00:56:52.529Z,101505.11
2022-10-08T00:58:22.497Z,101504.70
2022-10-08T00:59:26.383Z,101498.52
2022-10-08T01:00:30.585Z,101499.46
2022-10-08T01:01:34.780Z,101500.73
2022-10-08T01:02:37.995Z,101499.01
2022-10-08T01:03:40.992Z,101497.18
2022-10-08T01:04:44.288Z,101498.17
2022-10-08T01:06:10.045Z,101501.23
2022-10-08T01:07:33.088Z,101500.89
2022-10-08T01:09:01.033Z,101502.06
2022-10-08T01:10:14.273Z,101499.83
2022-10-08T01:11:28.854Z,101494.77
2022-10-08T01:12:52.561Z,101494.70
2022-10-08T01:14:14.216Z,101497.34
2022-10-08T01:15:39.807Z,101494.82
2022-10-08T01:16:55.833Z,101493.54
2022-10-08T01:18:29.069Z,101487.67
2022-10-08T01:19:48.477Z,101485.33
2022-10-08T01:21:27.443Z,101487.23
2022-10-08T01:22:51.632Z,101484.89
2022-10-08T01:24:09.541Z,101482.64
2022-10-08T01:25:33.857Z,101484.50
2022-10-08T01:26:49.089Z,101481.52
2022-10-08T01:28:00.997Z,101482.39
2022-10-08T01:29:04.161Z,101484.48
2022-10-08T01:30:12.998Z,101486.23
2022-10-08T01:33:02.491Z,101480.41
2022-10-08T01:34:13.103Z,101481.29
2022-10-08T01:35:21.902Z,101477.86
2022-10-08T01:36:27.549Z,101478.41
2022-10-08T01:37:36.490Z,101474.54
2022-10-08T01:38:43.275Z,101471.63
2022-10-08T01:39:49.316Z,101471.95
2022-10-08T01:40:58.916Z,101472.16
2022-10-08T01:42:05.630Z,101472.29
2022-10-08T01:43:12.959Z,101470.85
2022-10-08T01:44:23.322Z,101470.55
2022-10-08T01:45:28.499Z,101475.52
2022-10-08T01:46:33.526Z,101471.19
2022-10-08T01:47:40.946Z,101465.72
2022-10-08T01:48:44.834Z,101463.21
2022-10-08T01:49:55.911Z,101461.50
2022-10-08T01:51:17.188Z,101461.30
2022-10-08T01:52:37.093Z,101462.69
2022-10-08T01:53:45.894Z,101466.92
2022-10-08T01:54:52.178Z,101464.28
2022-10-08T01:55:56.094Z,101463.24
2022-10-08T01:57:02.309Z,101463.18
2022-10-08T01:58:13.632Z,101459.73
2022-10-08T01:59:42.199Z,101460.33
2022-10-08T02:00:47.633Z,101456.78
2022-10-08T02:02:01.160Z,101457.30
2022-10-08T02:03:04.565Z,101455.35
2022-10-08T02:04:26.245Z,101454.65
2022-10-08T02:05:34.292Z,101455.35
2022-10-08T02:06:42.586Z,101455.23
2022-10-08T02:07:45.798Z,101456.77
2022-10-08T02:08:49.802Z,101456.92
2022-10-08T02:10:02.654Z,101456.70
2022-10-08T02:11:06.089Z,101454.23
2022-10-08T02:12:10.079Z,101453.62
2022-10-08T02:13:13.484Z,101452.83
2022-10-08T02:14:16.761Z,101452.42
2022-10-08T02:15:46.168Z,101451.33
2022-10-08T02:17:12.493Z,101452.30
2022-10-08T02:18:19.122Z,101450.40
2022-10-08T02:19:28.223Z,101450.01
2022-10-08T02:20:37.746Z,101447.89
2022-10-08T02:21:43.255Z,101444.33
2022-10-08T02:23:01.187Z,101443.52
2022-10-08T02:24:26.978Z,101439.07
2022-10-08T02:25:44.786Z,101441.46
2022-10-08T02:26:51.051Z,101438.73
2022-10-08T02:28:10.719Z,101434.60
2022-10-08T02:29:20.555Z,101434.23
2022-10-08T02:30:24.750Z,101431.20
2022-10-08T02:31:49.188Z,101435.48
2022-10-08T02:33:00.432Z,101435.67
2022-10-08T02:34:17.803Z,101433.91
2022-10-08T02:35:27.049Z,101433.17
2022-10-08T02:36:39.203Z,101436.06
2022-10-08T02:37:47.574Z,101430.39
2022-10-08T02:38:54.596Z,101432.80
2022-10-08T02:40:05.245Z,101429.44
2022-10-08T02:41:10.527Z,101425.63
2022-10-08T02:42:19.217Z,101426.27
2022-10-08T02:43:26.582Z,101425.92
2022-10-08T02:44:35.178Z,101424.25
2022-10-08T02:45:46.769Z,101424.57
2022-10-08T02:46:54.164Z,101422.09
2022-10-08T02:48:08.592Z,101421.11
2022-10-08T02:49:33.802Z,101422.53
2022-10-08T02:50:40.586Z,101424.51
2022-10-08T02:51:49.396Z,101423.35
2022-10-08T02:52:52.756Z,101424.81
2022-10-08T02:53:56.501Z,101421.65
2022-10-08T02:55:01.335Z,101427.02
2022-10-08T02:56:13.769Z,101423.59
2022-10-08T02:57:29.784Z,101422.07
2022-10-08T02:58:33.015Z,101420.12
2022-10-08T02:59:36.524Z,101421.29
2022-10-08T03:00:49.283Z,101419.16
2022-10-08T03:01:57.547Z,101417.57
2022-10-08T03:03:15.075Z,101417.09
2022-10-08T03:04:27.724Z,101415.00
2022-10-08T03:05:30.996Z,101413.20
2022-10-08T03:06:36.006Z,101414.56
2022-10-08T03:07:39.005Z,101411.00
2022-10-08T03:08:46.471Z,101411.55
2022-10-08T03:09:52.951Z,101411.66
2022-10-08T03:10:59.448Z,101409.03
2022-10-08T03:12:02.928Z,101408.92
2022-10-08T03:13:07.644Z,101406.65
2022-10-08T03:14:14.044Z,101406.55
2022-10-08T03:15:17.080Z,101407.14
2022-10-08T03:16:23.870Z,101401.13
2022-10-08T03:17:35.838Z,101403.44
2022-10-08T03:18:40.024Z,101406.17
2022-10-08T03:19:42.956Z,101409.65
2022-10-08T03:20:50.803Z,101408.61
2022-10-08T03:21:56.566Z,101406.88
2022-10-08T03:23:01.796Z,101408.75
2022-10-08T03:24:06.300Z,101411.65
2022-10-08T03:25:09.492Z,101413.39
2022-10-08T03:26:12.596Z,101416.08
2022-10-08T03:27:15.740Z,101411.16
2022-10-08T03:28:18.709Z,101411.02
2022-10-08T03:29:21.688Z,101411.39
2022-10-08T03:30:24.915Z,101408.34
2022-10-08T03:31:27.962Z,101410.64
2022-10-08T03:32:31.179Z,101408.83
2022-10-08T03:33:34.576Z,101405.63
2022-10-08T03:34:37.588Z,101407.04
2022-10-08T03:35:47.596Z,101404.89
2022-10-08T03:36:50.640Z,101397.89
2022-10-08T03:37:54.103Z,101397.63
2022-10-08T03:38:57.519Z,101397.28
2022-10-08T03:40:00.559Z,101397.29
2022-10-08T03:41:03.552Z,101393.79
2022-10-08T03:42:06.438Z,101393.34
2022-10-08T03:43:09.479Z,101394.48
2022-10-08T03:44:12.530Z,101391.06
2022-10-08T03:45:15.667Z,101393.05
2022-10-08T03:46:19.452Z,101390.34
2022-10-08T03:47:22.356Z,101389.08
2022-10-08T03:48:25.467Z,101389.14
2022-10-08T03:49:28.459Z,101390.46
2022-10-08T03:50:31.554Z,101392.59
2022-10-08T03:51:34.688Z,101390.66
2022-10-08T03:52:37.886Z,101388.75
2022-10-08T03:53:42.891Z,101386.93
2022-10-08T03:54:45.830Z,101385.52
2022-10-08T03:55:49.147Z,101385.75
2022-10-08T03:56:52.224Z,101382.48
2022-10-08T03:57:55.176Z,101383.91
2022-10-08T03:58:59.940Z,101380.87
2022-10-08T04:00:03.726Z,101380.30
2022-10-08T04:01:11.866Z,101386.48
2022-10-08T04:02:15.051Z,101384.88
2022-10-08T04:03:17.998Z,101385.64
2022-10-08T04:04:25.352Z,101382.61
2022-10-08T04:05:28.859Z,101387.67
2022-10-08T04:06:31.943Z,101386.77
2022-10-08T04:07:35.022Z,101386.01
2022-10-08T04:08:40.678Z,101386.34
2022-10-08T04:09:46.519Z,101387.11
2022-10-08T04:10:49.747Z,101386.98
2022-10-08T04:11:52.769Z,101387.86
2022-10-08T04:12:56.044Z,101386.04
2022-10-08T04:14:01.098Z,101381.20
2022-10-08T04:15:07.482Z,101382.84
2022-10-08T04:16:15.838Z,101383.73
2022-10-08T04:17:19.099Z,101384.33
2022-10-08T04:18:23.688Z,101382.17
2022-10-08T04:19:26.634Z,101382.58
2022-10-08T04:20:37.416Z,101381.71
2022-10-08T04:21:41.335Z,101382.34
2022-10-08T04:22:44.852Z,101379.54
2022-10-08T04:23:51.250Z,101381.42
2022-10-08T04:24:54.636Z,101380.04
2022-10-08T04:25:57.889Z,101377.64
2022-10-08T04:27:01.038Z,101376.02
2022-10-08T04:28:06.080Z,101376.13
2022-10-08T04:29:12.629Z,101376.02
2022-10-08T04:30:16.635Z,101375.58
2022-10-08T04:31:23.210Z,101376.91
2022-10-08T04:32:26.274Z,101376.60
2022-10-08T04:33:31.279Z,101377.38
2022-10-08T04:34:34.235Z,101380.83
2022-10-08T04:35:38.253Z,101376.17
2022-10-08T04:36:41.469Z,101379.00
2022-10-08T04:37:44.414Z,101378.81
2022-10-08T04:38:48.141Z,101375.95
2022-10-08T04:39:51.158Z,101376.77
2022-10-08T04:41:11.920Z,101376.42
2022-10-08T04:42:15.346Z,101374.23
2022-10-08T04:43:18.257Z,101373.27
2022-10-08T04:44:21.256Z,101368.98
2022-10-08T04:45:24.179Z,101372.56
2022-10-08T04:46:27.728Z,101374.86
2022-10-08T04:47:31.135Z,101375.23
2022-10-08T04:48:34.300Z,101380.46
2022-10-08T04:49:37.479Z,101381.08
2022-10-08T04:50:40.607Z,101382.66
2022-10-08T04:51:43.619Z,101379.46
2022-10-08T04:52:46.888Z,101377.82
2022-10-08T04:53:51.101Z,101379.02
2022-10-08T04:54:54.021Z,101379.55
2022-10-08T04:55:57.855Z,101376.50
2022-10-08T04:57:00.812Z,101374.83
2022-10-08T04:58:03.839Z,101372.34
2022-10-08T04:59:06.731Z,101374.10
2022-10-08T05:00:19.135Z,101373.07
2022-10-08T05:01:23.830Z,101373.86
2022-10-08T05:02:26.858Z,101372.34
2022-10-08T05:03:30.057Z,101371.17
2022-10-08T05:04:33.081Z,101372.05
2022-10-08T05:05:44.331Z,101368.70
2022-10-08T05:06:47.470Z,101374.11
2022-10-08T05:07:50.803Z,101375.48
2022-10-08T05:09:04.206Z,101374.83
2022-10-08T05:10:08.987Z,101375.85
2022-10-08T05:11:12.891Z,101376.80
2022-10-08T05:12:15.936Z,101379.42
2022-10-08T05:13:19.161Z,101382.38
2022-10-08T05:14:22.320Z,101380.41
2022-10-08T05:15:25.304Z,101377.91
2022-10-08T05:16:28.273Z,101379.30
2022-10-08T05:17:31.244Z,101377.08
2022-10-08T05:18:35.383Z,101377.95
2022-10-08T05:19:38.511Z,101373.45
2022-10-08T05:20:41.507Z,101377.40
2022-10-08T05:21:44.587Z,101377.45
2022-10-08T05:22:48.009Z,101381.20
2022-10-08T05:23:56.277Z,101378.64
2022-10-08T05:24:59.338Z,101378.47
2022-10-08T05:26:18.373Z,101380.48
2022-10-08T05:27:21.662Z,101383.86
2022-10-08T05:28:24.902Z,101383.86
2022-10-08T05:29:30.779Z,101387.69
2022-10-08T05:30:33.976Z,101386.20
2022-10-08T05:31:38.395Z,101387.39
2022-10-08T05:32:41.388Z,101383.24
2022-10-08T05:33:45.075Z,101382.56
2022-10-08T05:34:48.210Z,101381.24
2022-10-08T05:35:51.442Z,101384.34
2022-10-08T05:36:54.432Z,101385.33
2022-10-08T05:37:57.634Z,101385.59
2022-10-08T05:39:02.637Z,101380.79
2022-10-08T05:40:05.937Z,101383.59
2022-10-08T05:41:18.200Z,101378.92
2022-10-08T05:42:21.219Z,101379.98
2022-10-08T05:43:24.183Z,101375.30
2022-10-08T05:44:27.152Z,101374.75
2022-10-08T05:45:30.127Z,101374.07
2022-10-08T05:46:35.259Z,101372.02
2022-10-08T05:47:38.319Z,101371.02
2022-10-08T05:48:42.060Z,101365.29
2022-10-08T05:49:45.037Z,101364.69
2022-10-08T05:50:48.044Z,101362.82
2022-10-08T05:51:51.380Z,101362.70
2022-10-08T05:52:54.348Z,101366.51
2022-10-08T05:54:00.197Z,101369.27
2022-10-08T05:55:03.463Z,101369.86
2022-10-08T05:56:08.987Z,101369.98
2022-10-08T05:57:12.009Z,101369.54
2022-10-08T05:58:15.022Z,101368.89
2022-10-08T05:59:21.655Z,101367.63
2022-10-08T06:00:24.695Z,101369.98
2022-10-08T06:01:30.830Z,101363.44
2022-10-08T06:02:33.864Z,101365.14
2022-10-08T06:03:36.870Z,101366.30
2022-10-08T06:04:39.914Z,101369.35
2022-10-08T06:05:43.032Z,101369.48
2022-10-08T06:06:46.508Z,101364.08
2022-10-08T06:07:49.671Z,101359.90
2022-10-08T06:08:58.634Z,101359.81
2022-10-08T06:10:01.732Z,101362.46
2022-10-08T06:11:06.307Z,101358.17
2022-10-08T06:12:10.164Z,101355.98
2022-10-08T06:13:14.784Z,101354.17
2022-10-08T06:14:20.326Z,101357.51
2022-10-08T06:15:23.409Z,101359.65
2022-10-08T06:16:27.691Z,101359.06
2022-10-08T06:17:30.910Z,101362.38
2022-10-08T06:18:37.341Z,101365.82
2022-10-08T06:19:40.307Z,101364.81
2022-10-08T06:20:43.328Z,101370.48
2022-10-08T06:21:46.394Z,101365.61
2022-10-08T06:22:49.729Z,101369.33
2022-10-08T06:23:55.330Z,101367.52
2022-10-08T06:24:58.423Z,101368.49
2022-10-08T06:26:05.671Z,101364.36
2022-10-08T06:27:08.791Z,101365.53
2022-10-08T06:28:12.221Z,101366.95
2022-10-08T06:29:17.758Z,101365.23
2022-10-08T06:30:21.475Z,101362.21
2022-10-08T06:31:26.572Z,101361.00
2022-10-08T06:32:29.572Z,101359.58
2022-10-08T06:33:32.823Z,101356.32
2022-10-08T06:34:36.659Z,101357.08
2022-10-08T06:35:39.756Z,101356.17
2022-10-08T06:36:42.925Z,101357.59
2022-10-08T06:37:48.841Z,101350.96
2022-10-08T06:38:57.879Z,101348.91
2022-10-08T06:40:01.127Z,101348.14
2022-10-08T06:41:04.191Z,101346.91
2022-10-08T06:42:07.276Z,101348.08
2022-10-08T06:43:15.758Z,101348.41
2022-10-08T06:44:19.278Z,101349.45
2022-10-08T06:45:22.284Z,101351.52
2022-10-08T06:46:25.387Z,101348.80
2022-10-08T06:47:28.440Z,101349.84
2022-10-08T06:48:31.831Z,101348.90
2022-10-08T06:49:35.136Z,101348.52
2022-10-08T06:50:39.264Z,101341.92
2022-10-08T06:51:42.316Z,101341.46
2022-10-08T06:52:46.138Z,101343.56
2022-10-08T06:53:54.935Z,101341.92
2022-10-08T06:54:58.451Z,101341.13
2022-10-08T06:56:05.244Z,101340.66
2022-10-08T06:57:08.305Z,101342.66
2022-10-08T06:58:11.195Z,101341.86
2022-10-08T06:59:14.172Z,101342.79
2022-10-08T07:00:17.553Z,101339.53
2022-10-08T07:01:31.846Z,101339.56
2022-10-08T07:02:36.342Z,101344.71
2022-10-08T07:03:39.653Z,101345.16
2022-10-08T07:04:42.550Z,101351.41
2022-10-08T07:05:45.514Z,101355.45
2022-10-08T07:06:49.266Z,101354.48
2022-10-08T07:07:52.649Z,101353.45
2022-10-08T07:09:01.244Z,101352.69
2022-10-08T07:10:05.638Z,101349.59
2022-10-08T07:11:17.065Z,101352.49
2022-10-08T07:12:20.289Z,101356.02
2022-10-08T07:13:23.404Z,101359.86
2022-10-08T07:14:26.358Z,101359.53
2022-10-08T07:15:31.269Z,101355.05
2022-10-08T07:16:34.429Z,101357.42
2022-10-08T07:17:37.701Z,101355.84
2022-10-08T07:18:41.407Z,101360.43
2022-10-08T07:19:44.383Z,101362.15
2022-10-08T07:20:55.859Z,101361.87
2022-10-08T07:22:01.319Z,101360.08
2022-10-08T07:23:04.753Z,101356.02
2022-10-08T07:24:07.840Z,101363.64
2022-10-08T07:25:10.986Z,101357.54
2022-10-08T07:26:19.171Z,101351.98
2022-10-08T07:27:22.168Z,101352.45
2022-10-08T07:28:27.614Z,101347.10
2022-10-08T07:29:30.748Z,101342.46
2022-10-08T07:30:36.396Z,101343.21
2022-10-08T07:31:39.666Z,101345.31
2022-10-08T07:32:42.656Z,101345.89
2022-10-08T07:33:45.689Z,101346.79
2022-10-08T07:34:48.729Z,101344.02
2022-10-08T07:35:51.711Z,101347.45
2022-10-08T07:36:54.765Z,101347.21
2022-10-08T07:37:58.000Z,101346.55
2022-10-08T07:39:03.886Z,101350.27
2022-10-08T07:40:07.264Z,101349.36
2022-10-08T07:41:11.669Z,101343.64
2022-10-08T07:42:17.075Z,101344.71
2022-10-08T07:43:20.083Z,101345.08
2022-10-08T07:44:23.248Z,101345.50
2022-10-08T07:45:26.224Z,101342.98
2022-10-08T07:46:31.305Z,101338.34
2022-10-08T07:47:34.790Z,101339.28
2022-10-08T07:48:38.907Z,101340.54
2022-10-08T07:49:41.967Z,101342.48
2022-10-08T07:50:44.953Z,101341.20
2022-10-08T07:51:48.166Z,101340.48
2022-10-08T07:52:51.292Z,101342.61
2022-10-08T07:53:57.677Z,101339.34
2022-10-08T07:55:03.939Z,101338.94
2022-10-08T07:56:09.136Z,101338.54
2022-10-08T07:57:12.107Z,101330.80
2022-10-08T07:58:15.147Z,101331.33
2022-10-08T07:59:18.070Z,101327.39
2022-10-08T08:00:25.897Z,101330.27
2022-10-08T08:01:30.454Z,101325.06
2022-10-08T08:02:33.764Z,101324.47
2022-10-08T08:03:36.784Z,101323.73
2022-10-08T08:04:39.958Z,101320.48
2022-10-08T08:05:43.041Z,101317.45
2022-10-08T08:06:52.404Z,101317.75
2022-10-08T08:07:55.402Z,101314.23
2022-10-08T08:09:00.376Z,101314.33
2022-10-08T08:10:04.043Z,101310.79
2022-10-08T08:11:09.287Z,101311.63
2022-10-08T08:12:12.511Z,101309.02
2022-10-08T08:13:15.807Z,101307.85
2022-10-08T08:14:19.824Z,101306.51
2022-10-08T08:15:22.985Z,101307.92
2022-10-08T08:16:27.904Z,101312.89
2022-10-08T08:17:31.413Z,101307.98
2022-10-08T08:18:37.222Z,101309.34
2022-10-08T08:19:40.330Z,101311.79
2022-10-08T08:20:43.377Z,101312.31
2022-10-08T08:21:46.826Z,101313.77
2022-10-08T08:22:50.555Z,101311.59
2022-10-08T08:23:55.846Z,101313.38
2022-10-08T08:24:58.892Z,101314.05
2022-10-08T08:26:03.796Z,101315.34
2022-10-08T08:27:06.938Z,101313.95
2022-10-08T08:28:10.061Z,101311.98
2022-10-08T08:29:18.555Z,101308.72
2022-10-08T08:30:21.996Z,101313.16
2022-10-08T08:31:30.824Z,101315.73
2022-10-08T08:32:34.235Z,101318.70
2022-10-08T08:33:37.473Z,101322.55
2022-10-08T08:34:40.956Z,101320.46
2022-10-08T08:35:53.532Z,101313.33
2022-10-08T08:36:59.230Z,101315.62
2022-10-08T08:38:02.329Z,101316.84
2022-10-08T08:39:07.721Z,101313.39
2022-10-08T08:40:11.118Z,101319.46
2022-10-08T08:41:37.752Z,101315.73
2022-10-08T08:42:52.227Z,101315.85
2022-10-08T08:44:08.657Z,101315.31
2022-10-08T08:45:45.815Z,101319.34
2022-10-08T08:47:05.160Z,101317.92
2022-10-08T08:48:24.886Z,101315.29
2022-10-08T08:49:34.881Z,101313.77
2022-10-08T08:50:45.503Z,101312.73
2022-10-08T08:51:52.636Z,101313.09
2022-10-08T08:52:56.129Z,101313.93
2022-10-08T08:53:59.945Z,101314.13
2022-10-08T08:55:17.157Z,101313.17
2022-10-08T08:56:22.566Z,101316.29
2022-10-08T08:57:41.665Z,101314.02
2022-10-08T08:59:00.184Z,101319.19
2022-10-08T09:00:11.416Z,101317.88
2022-10-08T09:01:20.276Z,101317.70
2022-10-08T09:02:28.692Z,101312.77
2022-10-08T09:03:41.189Z,101315.21
2022-10-08T09:04:50.616Z,101314.83
2022-10-08T09:05:58.371Z,101311.30
2022-10-08T09:07:05.827Z,101312.42
2022-10-08T09:08:18.059Z,101318.11
2022-10-08T09:09:42.849Z,101315.20
2022-10-08T09:10:52.669Z,101316.35
2022-10-08T09:11:56.030Z,101313.64
2022-10-08T09:13:01.683Z,101312.67
2022-10-08T09:14:37.023Z,101313.81
2022-10-08T09:15:40.625Z,101315.05
2022-10-08T09:16:43.734Z,101314.30
2022-10-08T09:17:51.794Z,101313.86
2022-10-08T09:18:54.866Z,101314.13
2022-10-08T09:19:58.721Z,101314.90
2022-10-08T09:21:02.147Z,101312.77
2022-10-08T09:22:20.830Z,101313.05
2022-10-08T09:23:26.486Z,101309.95
2022-10-08T09:24:29.827Z,101311.58
2022-10-08T09:25:34.053Z,101310.38
2022-10-08T09:26:37.024Z,101306.34
2022-10-08T09:27:48.095Z,101308.45
2022-10-08T09:28:56.955Z,101308.81
2022-10-08T09:30:00.044Z,101303.56
2022-10-08T09:31:31.108Z,101307.51
2022-10-08T09:32:34.183Z,101306.38
2022-10-08T09:33:39.960Z,101302.54
2022-10-08T09:34:43.885Z,101300.33
2022-10-08T09:35:51.840Z,101301.04
2022-10-08T09:37:04.911Z,101301.86
2022-10-08T09:38:19.985Z,101298.48
2022-10-08T09:39:24.500Z,101295.91
2022-10-08T09:40:28.531Z,101295.08
2022-10-08T09:41:31.786Z,101293.57
2022-10-08T09:42:34.732Z,101298.31
2022-10-08T09:43:37.658Z,101295.70
2022-10-08T09:44:46.299Z,101293.83
2022-10-08T09:45:49.802Z,101289.25
2022-10-08T09:47:05.684Z,101287.70
2022-10-08T09:48:29.705Z,101292.21
2022-10-08T09:49:38.488Z,101287.28
2022-10-08T09:50:53.267Z,101285.64
2022-10-08T09:51:59.478Z,101282.14
2022-10-08T09:53:02.627Z,101282.77
2022-10-08T09:54:06.175Z,101282.96
2022-10-08T09:55:17.788Z,101285.27
2022-10-08T09:56:28.150Z,101281.45
2022-10-08T09:57:33.852Z,101285.34
2022-10-08T09:58:49.264Z,101284.31
2022-10-08T10:00:02.844Z,101277.50
2022-10-08T10:01:15.810Z,101274.80
2022-10-08T10:02:36.890Z,101277.05
2022-10-08T10:03:47.622Z,101270.70
2022-10-08T10:04:55.351Z,101269.08
2022-10-08T10:06:02.103Z,101265.41
2022-10-08T10:07:05.694Z,101262.79
2022-10-08T10:08:43.341Z,101261.44
2022-10-08T10:09:58.708Z,101258.20
2022-10-08T10:11:02.149Z,101261.52
2022-10-08T10:12:25.154Z,101262.52
2022-10-08T10:13:35.469Z,101257.67
2022-10-08T10:14:44.157Z,101258.51
2022-10-08T10:15:53.173Z,101262.36
2022-10-08T10:17:02.673Z,101258.16
2022-10-08T10:18:14.070Z,101263.50
2022-10-08T10:19:22.643Z,101265.02
2022-10-08T10:20:36.369Z,101268.11
2022-10-08T10:21:53.545Z,101268.48
2022-10-08T10:23:02.892Z,101266.31
2022-10-08T10:24:43.270Z,101266.47
2022-10-08T10:26:06.338Z,101263.88
2022-10-08T10:27:16.450Z,101257.74
2022-10-08T10:28:43.134Z,101261.16
2022-10-08T10:30:05.331Z,101263.16
2022-10-08T10:31:32.169Z,101255.80
2022-10-08T10:32:44.883Z,101254.10
2022-10-08T10:34:02.834Z,101252.61
2022-10-08T10:35:17.382Z,101249.80
2022-10-08T10:36:22.297Z,101251.00
2022-10-08T10:37:34.430Z,101252.42
2022-10-08T10:38:50.304Z,101255.73
2022-10-08T10:40:16.472Z,101247.71
2022-10-08T10:41:28.582Z,101254.36
2022-10-08T10:42:51.091Z,101251.52
2022-10-08T10:44:00.790Z,101252.02
2022-10-08T10:45:18.369Z,101247.08
2022-10-08T10:46:44.638Z,101241.91
2022-10-08T10:47:50.439Z,101245.28
2022-10-08T10:48:53.619Z,101246.91
2022-10-08T10:49:58.644Z,101247.90
2022-10-08T10:51:19.669Z,101242.51
2022-10-08T10:53:00.506Z,101240.05
2022-10-08T10:54:25.224Z,101237.35
2022-10-08T10:55:54.706Z,101231.14
2022-10-08T10:57:05.059Z,101229.82
2022-10-08T10:58:21.924Z,101231.80
2022-10-08T10:59:46.609Z,101233.46
2022-10-08T11:01:08.442Z,101232.95
2022-10-08T11:02:21.246Z,101228.64
2022-10-08T11:03:45.968Z,101226.73
2022-10-08T11:05:14.848Z,101226.11
2022-10-08T11:06:49.706Z,101226.85
2022-10-08T11:08:14.619Z,101230.14
2022-10-08T11:09:49.397Z,101230.76
2022-10-08T11:10:55.404Z,101230.27
2022-10-08T11:12:10.016Z,101229.67
2022-10-08T11:13:30.844Z,101231.67
2022-10-08T11:14:37.130Z,101229.70
2022-10-08T11:15:49.720Z,101228.67
2022-10-08T11:17:13.035Z,101225.73
2022-10-08T11:18:16.215Z,101232.44
2022-10-08T11:19:37.164Z,101234.66
2022-10-08T11:20:40.275Z,101237.84
2022-10-08T11:22:07.946Z,101232.85
2022-10-08T11:23:39.136Z,101228.30
2022-10-08T11:24:48.496Z,101226.61
2022-10-08T11:26:20.491Z,101229.52
2022-10-08T11:27:48.053Z,101229.72
2022-10-08T11:29:17.161Z,101223.00
2022-10-08T11:30:37.436Z,101214.67
2022-10-08T11:31:43.535Z,101216.63
2022-10-08T11:32:53.778Z,101213.77
2022-10-08T11:33:57.568Z,101218.05
2022-10-08T11:35:13.156Z,101215.98
2022-10-08T11:36:32.801Z,101217.31
2022-10-08T11:37:56.687Z,101217.79
2022-10-08T11:39:26.701Z,101217.77
2022-10-08T11:40:53.592Z,101213.31
2022-10-08T11:42:00.958Z,101214.02
2022-10-08T11:43:22.747Z,101216.95
2022-10-08T11:44:26.927Z,101218.47
2022-10-08T11:45:36.630Z,101221.89
2022-10-08T11:46:41.102Z,101219.67
2022-10-08T11:47:44.250Z,101220.05
2022-10-08T11:48:47.546Z,101220.77
2022-10-08T11:49:55.318Z,101223.80
2022-10-08T11:51:20.088Z,101220.94
2022-10-08T11:52:34.045Z,101219.91
2022-10-08T11:53:43.576Z,101218.68
2022-10-08T11:55:02.163Z,101216.59
2022-10-08T11:56:19.899Z,101213.16
2022-10-08T11:58:06.194Z,101209.41
2022-10-08T11:59:25.746Z,101209.19
2022-10-08T12:00:39.637Z,101211.09
2022-10-08T12:02:02.153Z,101208.61
2022-10-08T12:03:47.230Z,101205.80
2022-10-08T12:04:52.820Z,101203.80
2022-10-08T12:05:59.973Z,101201.31
2022-10-08T12:07:27.923Z,101200.67
2022-10-08T12:08:53.235Z,101194.33
2022-10-08T12:10:05.649Z,101200.77
2022-10-08T12:11:39.659Z,101195.34
2022-10-08T12:12:51.767Z,101195.17
2022-10-08T12:14:13.434Z,101196.30
2022-10-08T12:15:22.890Z,101196.53
2022-10-08T12:16:48.928Z,101196.73
2022-10-08T12:17:57.616Z,101202.60
2022-10-08T12:19:00.788Z,101198.33
2022-10-08T12:20:20.722Z,101196.85
2022-10-08T12:21:27.025Z,101193.86
2022-10-08T12:22:29.953Z,101203.06
2022-10-08T12:23:35.527Z,101200.09
2022-10-08T12:24:38.584Z,101200.11
2022-10-08T12:25:44.439Z,101197.48
2022-10-08T12:27:20.939Z,101201.35
2022-10-08T12:28:24.094Z,101199.49
2022-10-08T12:29:48.053Z,101196.05
2022-10-08T12:31:02.256Z,101195.88
2022-10-08T12:32:05.547Z,101194.03
2022-10-08T12:33:09.355Z,101196.24
2022-10-08T12:34:20.147Z,101198.73
2022-10-08T12:35:38.367Z,101200.95
2022-10-08T12:36:48.495Z,101203.73
2022-10-08T12:38:03.688Z,101208.56
2022-10-08T12:39:31.723Z,101201.88
2022-10-08T12:40:41.441Z,101208.64
2022-10-08T12:41:59.851Z,101207.20
2022-10-08T12:43:34.328Z,101208.50
2022-10-08T12:44:59.773Z,101209.40
2022-10-08T12:46:14.121Z,101201.45
2022-10-08T12:47:40.620Z,101206.52
2022-10-08T12:48:53.819Z,101205.33
2022-10-08T12:50:05.207Z,101200.55
2022-10-08T12:51:45.582Z,101196.71
2022-10-08T12:52:48.797Z,101199.55
2022-10-08T12:53:52.254Z,101201.65
2022-10-08T12:54:57.800Z,101196.59
2022-10-08T12:56:01.972Z,101202.88
2022-10-08T12:57:11.695Z,101204.13
2022-10-08T12:58:29.244Z,101203.55
2022-10-08T12:59:32.738Z,101203.90
2022-10-08T13:00:36.416Z,101204.84
2022-10-08T13:01:42.707Z,101203.04
2022-10-08T13:03:15.004Z,101201.48
2022-10-08T13:04:27.305Z,101204.42
2022-10-08T13:05:33.742Z,101197.82
2022-10-08T13:06:36.933Z,101196.95